createdAt,value
2019-04-19T00:01:01.437Z,0.00
2019-04-19T00:02:01.750Z,0.00
2019-04-19T00:02:56.058Z,0.00
2019-04-19T00:03:57.273Z,0.00
2019-04-19T00:04:59.346Z,0.00
2019-04-19T00:05:56.012Z,0.00
2019-04-19T00:07:05.710Z,0.00
2019-04-19T00:08:12.501Z,0.00
2019-04-19T00:09:08.988Z,0.00
2019-04-19T00:10:02.466Z,0.00
2019-04-19T00:11:07.166Z,0.00
2019-04-19T00:12:07.176Z,0.00
2019-04-19T00:12:59.997Z,0.00
2019-04-19T00:13:55.721Z,0.00
2019-04-19T00:14:55.475Z,0.00
2019-04-19T00:15:56.074Z,0.00
2019-04-19T00:16:55.607Z,0.00
2019-04-19T00:17:59.943Z,0.00
2019-04-19T00:19:21.251Z,0.00
2019-04-19T00:20:22.073Z,0.00
2019-04-19T00:21:13.683Z,0.00
2019-04-19T00:22:17.026Z,0.00
2019-04-19T00:23:08.753Z,0.00
2019-04-19T00:23:56.936Z,0.00
2019-04-19T00:24:56.591Z,0.00
2019-04-19T00:25:55.785Z,0.00
2019-04-19T00:26:56.933Z,0.00
2019-04-19T00:27:59.415Z,0.00
2019-04-19T00:29:01.037Z,0.00
2019-04-19T00:30:02.257Z,0.00
2019-04-19T00:31:12.014Z,0.00
2019-04-19T00:32:15.705Z,0.00
2019-04-19T00:33:09.095Z,0.00
2019-04-19T00:33:58.836Z,0.00
2019-04-19T00:34:56.699Z,0.00
2019-04-19T00:35:55.915Z,0.00
2019-04-19T00:36:55.851Z,0.00
2019-04-19T00:38:02.463Z,0.00
2019-04-19T00:39:15.328Z,0.00
2019-04-19T00:40:15.590Z,0.00
2019-04-19T00:41:14.394Z,0.00
2019-04-19T00:42:16.622Z,0.00
2019-04-19T00:43:08.958Z,0.00
2019-04-19T00:44:06.909Z,0.00
2019-04-19T00:45:15.854Z,0.00
2019-04-19T00:46:09.029Z,0.00
2019-04-19T00:47:14.481Z,0.00
2019-04-19T00:48:07.410Z,0.00
2019-04-19T00:49:10.215Z,0.00
2019-04-19T00:50:09.632Z,0.00
2019-04-19T00:51:08.139Z,0.00
2019-04-19T00:52:10.365Z,0.00
2019-04-19T00:53:11.344Z,0.00
2019-04-19T00:54:07.217Z,0.00
2019-04-19T00:55:04.734Z,0.00
2019-04-19T00:56:04.531Z,0.00
2019-04-19T00:57:02.966Z,0.00
2019-04-19T00:58:04.070Z,0.00
2019-04-19T00:59:00.706Z,0.00
2019-04-19T00:59:56.882Z,0.00
2019-04-19T01:00:57.314Z,0.00
2019-04-19T01:02:04.274Z,0.00
2019-04-19T01:02:57.919Z,0.00
2019-04-19T01:03:57.330Z,0.00
2019-04-19T01:05:03.673Z,0.00
2019-04-19T01:06:02.049Z,0.00
2019-04-19T01:07:00.575Z,0.00
2019-04-19T01:08:01.829Z,0.00
2019-04-19T01:09:12.042Z,0.00
2019-04-19T01:10:14.839Z,0.00
2019-04-19T01:11:12.971Z,0.00
2019-04-19T01:12:10.759Z,0.00
2019-04-19T01:13:08.042Z,0.00
2019-04-19T01:14:11.735Z,0.00
2019-04-19T01:15:09.314Z,0.00
2019-04-19T01:16:11.213Z,0.00
2019-04-19T01:17:15.152Z,0.00
2019-04-19T01:18:11.560Z,0.00
2019-04-19T01:19:04.192Z,0.00
2019-04-19T01:20:00.268Z,0.00
2019-04-19T01:20:56.598Z,0.00
2019-04-19T01:21:57.463Z,0.00
2019-04-19T01:23:05.350Z,0.00
2019-04-19T01:23:59.051Z,0.00
2019-04-19T01:24:56.664Z,0.00
2019-04-19T01:26:01.653Z,0.00
2019-04-19T01:26:58.766Z,0.00
2019-04-19T01:28:03.272Z,0.00
2019-04-19T01:29:02.606Z,0.00
2019-04-19T01:29:58.298Z,0.00
2019-04-19T01:30:57.051Z,0.00
2019-04-19T01:32:03.150Z,0.00
2019-04-19T01:32:59.806Z,0.00
2019-04-19T01:33:56.815Z,0.00
2019-04-19T01:35:00.943Z,0.00
2019-04-19T01:35:57.416Z,0.00
2019-04-19T01:36:57.013Z,0.00
2019-04-19T01:38:00.716Z,0.00
2019-04-19T01:39:14.541Z,0.00
2019-04-19T01:40:09.379Z,0.00
2019-04-19T01:41:14.506Z,0.00
2019-04-19T01:42:11.736Z,0.00
2019-04-19T01:43:13.360Z,0.00
2019-04-19T01:44:21.455Z,0.00
2019-04-19T01:45:12.552Z,0.00
2019-04-19T01:46:13.047Z,0.00
2019-04-19T01:47:19.976Z,0.00
2019-04-19T01:48:12.995Z,0.00
2019-04-19T01:49:06.277Z,0.00
2019-04-19T01:50:11.299Z,0.00
2019-04-19T01:51:13.322Z,0.00
2019-04-19T01:52:18.122Z,0.00
2019-04-19T01:53:17.393Z,0.00
2019-04-19T01:54:20.557Z,0.00
2019-04-19T01:55:07.677Z,0.00
2019-04-19T01:56:03.829Z,0.00
2019-04-19T01:57:02.207Z,0.00
2019-04-19T01:58:04.909Z,0.00
2019-04-19T01:59:00.735Z,0.00
2019-04-19T01:59:59.159Z,0.00
2019-04-19T02:01:00.237Z,0.00
2019-04-19T02:02:01.487Z,0.00
2019-04-19T02:03:01.208Z,0.00
2019-04-19T02:03:57.324Z,0.00
2019-04-19T02:05:03.137Z,0.00
2019-04-19T02:06:01.864Z,0.00
2019-04-19T02:06:58.326Z,0.00
2019-04-19T02:08:03.464Z,0.00
2019-04-19T02:08:59.200Z,0.00
2019-04-19T02:10:12.217Z,0.00
2019-04-19T02:11:05.522Z,0.00
2019-04-19T02:12:12.829Z,0.00
2019-04-19T02:13:10.238Z,0.00
2019-04-19T02:14:04.831Z,0.00
2019-04-19T02:15:03.871Z,0.00
2019-04-19T02:15:58.036Z,0.00
2019-04-19T02:17:02.625Z,0.00
2019-04-19T02:17:58.813Z,0.00
2019-04-19T02:19:05.317Z,0.00
2019-04-19T02:20:02.768Z,0.00
2019-04-19T02:20:58.194Z,0.00
2019-04-19T02:22:02.086Z,0.00
2019-04-19T02:23:04.286Z,0.00
2019-04-19T02:24:01.790Z,0.00
2019-04-19T02:25:00.244Z,0.00
2019-04-19T02:26:03.585Z,0.00
2019-04-19T02:27:02.746Z,0.00
2019-04-19T02:27:58.462Z,0.00
2019-04-19T02:29:02.741Z,0.00
2019-04-19T02:30:07.084Z,0.00
2019-04-19T02:31:10.613Z,0.00
2019-04-19T02:32:19.078Z,0.00
2019-04-19T02:33:20.280Z,0.00
2019-04-19T02:34:29.125Z,0.00
2019-04-19T02:35:20.193Z,0.00
2019-04-19T02:36:25.407Z,0.00
2019-04-19T02:37:28.440Z,0.00
2019-04-19T02:38:22.757Z,0.00
2019-04-19T02:39:30.858Z,0.00
2019-04-19T02:42:32.691Z,0.00
2019-04-19T02:43:37.889Z,0.00
2019-04-19T02:44:46.171Z,0.00
2019-04-19T02:45:26.239Z,0.00
2019-04-19T02:48:26.283Z,0.00
2019-04-19T02:49:28.488Z,0.00
2019-04-19T02:50:35.879Z,0.00
2019-04-19T02:51:25.370Z,0.00
2019-04-19T02:52:40.979Z,0.00
2019-04-19T02:53:23.960Z,0.00
2019-04-19T02:54:25.663Z,0.00
2019-04-19T02:55:20.022Z,0.00
2019-04-19T02:56:39.281Z,0.00
2019-04-19T02:57:36.739Z,0.00
2019-04-19T02:58:21.404Z,0.00
2019-04-19T02:59:36.975Z,0.00
2019-04-19T03:00:37.148Z,0.00
2019-04-19T03:01:34.491Z,0.00
2019-04-19T03:02:37.695Z,0.00
2019-04-19T03:05:22.099Z,0.00
2019-04-19T03:06:15.325Z,0.00
2019-04-19T03:07:01.125Z,0.00
2019-04-19T03:07:59.583Z,0.00
2019-04-19T03:08:58.584Z,0.00
2019-04-19T03:09:58.447Z,0.00
2019-04-19T03:11:08.994Z,0.00
2019-04-19T03:12:13.754Z,0.00
2019-04-19T03:13:16.229Z,0.00
2019-04-19T03:14:11.912Z,0.00
2019-04-19T03:15:09.939Z,0.00
2019-04-19T03:16:21.736Z,0.00
2019-04-19T03:17:18.899Z,0.00
2019-04-19T03:18:19.332Z,0.00
2019-04-19T03:19:09.447Z,0.00
2019-04-19T03:20:17.893Z,0.00
2019-04-19T03:21:17.019Z,0.00
2019-04-19T03:22:18.315Z,0.00
2019-04-19T03:23:13.927Z,0.00
2019-04-19T03:24:16.791Z,0.00
2019-04-19T03:25:15.250Z,0.00
2019-04-19T03:26:17.169Z,0.00
2019-04-19T03:27:09.032Z,0.00
2019-04-19T03:28:11.074Z,0.00
2019-04-19T03:29:08.066Z,0.00
2019-04-19T03:30:11.210Z,0.00
2019-04-19T03:31:23.352Z,0.00
2019-04-19T03:34:20.627Z,0.00
2019-04-19T03:35:22.195Z,0.00
2019-04-19T03:36:18.301Z,0.00
2019-04-19T03:37:16.435Z,0.00
2019-04-19T03:38:12.762Z,0.00
2019-04-19T03:39:23.007Z,0.00
2019-04-19T03:41:29.335Z,0.00
2019-04-19T03:42:20.077Z,0.00
2019-04-19T03:43:20.129Z,0.00
2019-04-19T03:44:17.154Z,0.00
2019-04-19T03:45:19.099Z,0.00
2019-04-19T03:46:15.980Z,0.00
2019-04-19T03:47:19.013Z,0.00
2019-04-19T03:48:35.039Z,0.00
2019-04-19T03:49:24.115Z,0.00
2019-04-19T03:50:15.576Z,0.00
2019-04-19T03:51:15.382Z,0.00
2019-04-19T03:52:20.134Z,5.63
2019-04-19T03:53:20.552Z,5.63
2019-04-19T03:54:17.575Z,5.63
2019-04-19T03:55:19.182Z,5.63
2019-04-19T03:56:18.069Z,5.63
2019-04-19T03:57:10.155Z,5.63
2019-04-19T03:58:06.474Z,5.63
2019-04-19T03:58:59.269Z,11.25
2019-04-19T04:00:00.302Z,11.25
2019-04-19T04:01:00.088Z,11.25
2019-04-19T04:02:01.012Z,11.25
2019-04-19T04:03:03.225Z,11.25
2019-04-19T04:04:07.380Z,16.88
2019-04-19T04:05:06.007Z,16.88
2019-04-19T04:05:59.935Z,16.88
2019-04-19T04:07:05.321Z,16.88
2019-04-19T04:08:04.607Z,22.50
2019-04-19T04:09:03.084Z,22.50
2019-04-19T04:10:00.700Z,22.50
2019-04-19T04:11:00.155Z,22.50
2019-04-19T04:12:15.244Z,28.13
2019-04-19T04:13:14.078Z,28.13
2019-04-19T04:14:13.658Z,28.13
2019-04-19T04:15:10.422Z,33.75
2019-04-19T04:16:14.057Z,33.75
2019-04-19T04:17:00.190Z,33.75
2019-04-19T04:18:00.614Z,39.38
2019-04-19T04:18:59.678Z,39.38
2019-04-19T04:20:00.786Z,39.38
2019-04-19T04:21:00.633Z,45.00
2019-04-19T04:22:00.596Z,45.00
2019-04-19T04:23:03.610Z,50.63
2019-04-19T04:24:12.126Z,50.63
2019-04-19T04:25:09.511Z,50.63
2019-04-19T04:26:06.636Z,56.25
2019-04-19T04:27:07.689Z,56.25
2019-04-19T04:28:08.996Z,56.25
2019-04-19T04:29:10.381Z,61.88
2019-04-19T04:30:10.101Z,61.88
2019-04-19T04:31:09.748Z,67.50
2019-04-19T04:32:11.941Z,67.50
2019-04-19T04:33:07.396Z,67.50
2019-04-19T04:34:05.219Z,73.13
2019-04-19T04:35:13.944Z,73.13
2019-04-19T04:36:20.933Z,78.75
2019-04-19T04:37:17.071Z,78.75
2019-04-19T04:38:08.951Z,84.38
2019-04-19T04:39:00.822Z,84.38
2019-04-19T04:39:59.949Z,84.38
2019-04-19T04:41:10.721Z,90.00
2019-04-19T04:42:12.393Z,90.00
2019-04-19T04:43:13.761Z,95.63
2019-04-19T04:44:19.975Z,95.63
2019-04-19T04:45:24.680Z,95.63
2019-04-19T04:46:20.959Z,101.25
2019-04-19T04:47:23.243Z,106.88
2019-04-19T04:48:21.615Z,106.88
2019-04-19T04:49:30.570Z,106.88
2019-04-19T04:50:28.853Z,106.88
2019-04-19T04:51:19.662Z,112.50
2019-04-19T04:52:11.338Z,112.50
2019-04-19T04:53:01.426Z,112.50
2019-04-19T04:54:00.205Z,118.13
2019-04-19T04:55:00.980Z,118.13
2019-04-19T04:56:02.809Z,118.13
2019-04-19T04:57:07.239Z,123.75
2019-04-19T04:58:02.744Z,123.75
2019-04-19T04:59:06.320Z,129.38
2019-04-19T05:00:02.522Z,129.38
2019-04-19T05:01:07.917Z,129.38
2019-04-19T05:02:08.203Z,135.00
2019-04-19T05:03:13.764Z,135.00
2019-04-19T05:04:17.384Z,140.63
2019-04-19T05:05:23.470Z,140.63
2019-04-19T05:06:16.492Z,140.63
2019-04-19T05:07:22.980Z,146.25
2019-04-19T05:08:19.508Z,146.25
2019-04-19T05:09:25.127Z,146.25
2019-04-19T05:10:20.125Z,151.88
2019-04-19T05:11:16.578Z,151.88
2019-04-19T05:12:34.017Z,151.88
2019-04-19T05:13:23.607Z,157.50
2019-04-19T05:14:18.240Z,157.50
2019-04-19T05:15:22.323Z,163.13
2019-04-19T05:16:27.570Z,163.13
2019-04-19T05:18:40.234Z,168.75
2019-04-19T05:19:17.842Z,168.75
2019-04-19T05:20:19.163Z,168.75
2019-04-19T05:21:17.967Z,174.38
2019-04-19T05:22:14.927Z,174.38
2019-04-19T05:23:19.769Z,174.38
2019-04-19T05:24:21.066Z,180.00
2019-04-19T05:25:28.315Z,180.00
2019-04-19T05:26:31.293Z,185.63
2019-04-19T05:27:24.743Z,185.63
2019-04-19T05:28:16.830Z,185.63
2019-04-19T05:29:11.002Z,185.63
2019-04-19T05:30:01.112Z,191.25
2019-04-19T05:31:04.111Z,196.88
2019-04-19T05:32:12.957Z,196.88
2019-04-19T05:33:08.437Z,196.88
2019-04-19T05:34:20.227Z,196.88
2019-04-19T05:35:16.755Z,196.88
2019-04-19T05:36:20.679Z,196.88
2019-04-19T05:37:16.226Z,202.50
2019-04-19T05:38:17.569Z,202.50
2019-04-19T05:40:21.589Z,208.13
2019-04-19T05:41:08.209Z,213.75
2019-04-19T05:42:14.501Z,213.75
2019-04-19T05:43:34.762Z,213.75
2019-04-19T05:46:21.197Z,230.63
2019-04-19T05:47:20.776Z,236.25
2019-04-19T05:48:18.340Z,230.63
2019-04-19T05:49:17.969Z,236.25
2019-04-19T05:50:28.032Z,241.88
2019-04-19T05:51:42.350Z,247.50
2019-04-19T05:52:27.007Z,264.38
2019-04-19T05:53:14.355Z,270.00
2019-04-19T05:54:06.838Z,275.63
2019-04-19T05:55:02.364Z,292.50
2019-04-19T05:56:01.231Z,281.25
2019-04-19T05:57:25.768Z,253.13
2019-04-19T05:58:11.382Z,253.13
2019-04-19T05:59:10.986Z,253.13
2019-04-19T06:00:14.965Z,258.75
2019-04-19T06:01:16.137Z,286.88
2019-04-19T06:02:12.464Z,303.75
2019-04-19T06:03:09.083Z,331.88
2019-04-19T06:04:22.060Z,393.75
2019-04-19T06:05:20.234Z,388.13
2019-04-19T06:06:26.228Z,320.63
2019-04-19T06:07:20.177Z,292.50
2019-04-19T06:08:10.374Z,343.13
2019-04-19T06:09:02.378Z,382.50
2019-04-19T06:10:03.554Z,354.38
2019-04-19T06:11:04.378Z,331.88
2019-04-19T06:12:08.309Z,320.63
2019-04-19T06:13:07.057Z,315.00
2019-04-19T06:14:28.942Z,348.75
2019-04-19T06:15:27.236Z,405.00
2019-04-19T06:16:21.078Z,371.25
2019-04-19T06:17:14.952Z,354.38
2019-04-19T06:18:16.680Z,450.00
2019-04-19T06:19:24.729Z,618.75
2019-04-19T06:20:20.655Z,776.25
2019-04-19T06:21:26.066Z,973.13
2019-04-19T06:22:14.585Z,1136.25
2019-04-19T06:23:19.079Z,1265.63
2019-04-19T06:24:26.526Z,1299.38
2019-04-19T06:25:29.127Z,1271.25
2019-04-19T06:27:25.104Z,1305.00
2019-04-19T06:28:26.031Z,1333.13
2019-04-19T06:29:22.592Z,1321.88
2019-04-19T06:30:21.640Z,1333.13
2019-04-19T06:31:27.034Z,1361.25
2019-04-19T06:32:24.838Z,1350.00
2019-04-19T06:33:21.524Z,1350.00
2019-04-19T06:34:22.794Z,1316.25
2019-04-19T06:35:15.335Z,1350.00
2019-04-19T06:36:05.841Z,1378.13
2019-04-19T06:37:11.061Z,1372.50
2019-04-19T06:38:03.348Z,1378.13
2019-04-19T06:39:02.080Z,1338.75
2019-04-19T06:40:12.849Z,1333.13
2019-04-19T06:41:08.692Z,1338.75
2019-04-19T06:42:07.308Z,1321.88
2019-04-19T06:43:08.798Z,1344.38
2019-04-19T06:44:12.839Z,1333.13
2019-04-19T06:45:25.289Z,1305.00
2019-04-19T06:46:13.427Z,1321.88
2019-04-19T06:47:11.090Z,1338.75
2019-04-19T06:48:09.224Z,1344.38
2019-04-19T06:49:08.322Z,1372.50
2019-04-19T06:50:02.941Z,1372.50
2019-04-19T06:51:13.062Z,1378.13
2019-04-19T06:52:11.445Z,1395.00
2019-04-19T06:53:02.318Z,1406.25
2019-04-19T06:54:06.912Z,1400.63
2019-04-19T06:55:10.026Z,1406.25
2019-04-19T06:56:11.874Z,1428.75
2019-04-19T06:57:12.036Z,1445.63
2019-04-19T06:58:11.612Z,1440.00
2019-04-19T06:59:13.075Z,1462.50
2019-04-19T07:00:12.922Z,1496.25
2019-04-19T07:01:14.363Z,1501.88
2019-04-19T07:02:03.568Z,1501.88
2019-04-19T07:03:02.622Z,1507.50
2019-04-19T07:04:02.579Z,1530.00
2019-04-19T07:05:20.424Z,1575.00
2019-04-19T07:06:21.346Z,1597.50
2019-04-19T07:07:23.558Z,1603.13
2019-04-19T07:08:47.736Z,1620.00
2019-04-19T07:09:26.436Z,1620.00
2019-04-19T07:10:32.250Z,1625.63
2019-04-19T07:11:28.399Z,1620.00
2019-04-19T07:12:28.636Z,1608.75
2019-04-19T07:13:18.042Z,1642.50
2019-04-19T07:14:11.745Z,1620.00
2019-04-19T07:15:30.127Z,1620.00
2019-04-19T07:16:28.959Z,1648.13
2019-04-19T07:17:23.502Z,1681.88
2019-04-19T07:18:22.207Z,1710.00
2019-04-19T07:19:26.615Z,1704.38
2019-04-19T07:20:16.283Z,1721.25
2019-04-19T07:21:26.336Z,1743.75
2019-04-19T07:22:15.561Z,1766.25
2019-04-19T07:23:24.197Z,1777.50
2019-04-19T07:24:32.330Z,1788.75
2019-04-19T07:25:30.482Z,1777.50
2019-04-19T07:26:21.639Z,1766.25
2019-04-19T07:27:15.527Z,1833.75
2019-04-19T07:28:09.740Z,1794.38
2019-04-19T07:29:04.182Z,1828.13
2019-04-19T07:30:05.136Z,1845.00
2019-04-19T07:31:06.169Z,1833.75
2019-04-19T07:32:03.888Z,1890.00
2019-04-19T07:33:09.405Z,1906.88
2019-04-19T07:34:14.731Z,1912.50
2019-04-19T07:35:13.371Z,1974.38
2019-04-19T07:36:22.226Z,1963.13
2019-04-19T07:37:20.803Z,1957.50
2019-04-19T07:38:27.217Z,1991.25
2019-04-19T07:39:22.838Z,2019.38
2019-04-19T07:40:29.434Z,1991.25
2019-04-19T07:41:21.944Z,1974.38
2019-04-19T07:42:25.303Z,1991.25
2019-04-19T07:43:18.305Z,2058.75
2019-04-19T07:44:19.941Z,2086.88
2019-04-19T07:45:08.303Z,2047.50
2019-04-19T07:46:21.259Z,2075.63
2019-04-19T07:47:20.168Z,2086.88
2019-04-19T07:48:11.144Z,2120.63
2019-04-19T07:49:04.125Z,2143.13
2019-04-19T07:50:13.444Z,2154.38
2019-04-19T07:51:11.045Z,2266.88
2019-04-19T07:52:14.019Z,2193.75
2019-04-19T07:53:04.262Z,2227.50
2019-04-19T07:54:11.839Z,2266.88
2019-04-19T07:55:08.423Z,2238.75
2019-04-19T07:56:18.793Z,2261.25
2019-04-19T07:57:39.487Z,2266.88
2019-04-19T07:59:42.345Z,2182.50
2019-04-19T08:01:33.111Z,708.75
2019-04-19T08:02:36.053Z,393.75
2019-04-19T08:03:38.435Z,376.88
2019-04-19T08:04:40.481Z,371.25
2019-04-19T08:05:26.666Z,371.25
2019-04-19T08:06:35.690Z,371.25
2019-04-19T08:07:41.393Z,371.25
2019-04-19T08:08:40.194Z,371.25
2019-04-19T08:10:28.289Z,371.25
2019-04-19T08:11:44.363Z,371.25
2019-04-19T08:15:27.542Z,371.25
2019-04-19T08:16:47.317Z,371.25
2019-04-19T08:27:27.513Z,376.88
2019-04-19T08:28:18.071Z,376.88
2019-04-19T08:29:16.121Z,376.88
2019-04-19T08:30:10.288Z,382.50
2019-04-19T08:31:07.202Z,382.50
2019-04-19T08:32:04.754Z,376.88
2019-04-19T08:33:04.778Z,382.50
2019-04-19T08:34:09.399Z,388.13
2019-04-19T08:35:09.380Z,376.88
2019-04-19T08:36:07.405Z,382.50
2019-04-19T08:37:10.117Z,382.50
2019-04-19T08:38:08.305Z,382.50
2019-04-19T08:39:21.236Z,382.50
2019-04-19T08:40:26.362Z,382.50
2019-04-19T08:41:14.891Z,382.50
2019-04-19T08:43:06.388Z,382.50
2019-04-19T08:43:22.778Z,382.50
2019-04-19T08:44:18.146Z,382.50
2019-04-19T08:45:10.175Z,388.13
2019-04-19T08:46:05.075Z,393.75
2019-04-19T08:47:16.806Z,388.13
2019-04-19T08:48:13.459Z,388.13
2019-04-19T08:49:10.651Z,388.13
2019-04-19T08:50:08.463Z,388.13
2019-04-19T08:51:05.807Z,388.13
2019-04-19T08:52:08.243Z,388.13
2019-04-19T08:53:24.071Z,393.75
2019-04-19T08:54:27.278Z,393.75
2019-04-19T08:55:26.148Z,393.75
2019-04-19T08:56:19.911Z,393.75
2019-04-19T08:57:12.587Z,393.75
2019-04-19T08:58:11.381Z,393.75
2019-04-19T08:59:28.005Z,393.75
2019-04-19T09:00:37.355Z,393.75
2019-04-19T09:01:27.364Z,393.75
2019-04-19T09:02:27.307Z,393.75
2019-04-19T09:03:19.199Z,399.38
2019-04-19T09:04:28.003Z,399.38
2019-04-19T09:05:23.473Z,405.00
2019-04-19T09:07:15.562Z,399.38
2019-04-19T09:07:46.260Z,399.38
2019-04-19T09:08:31.084Z,399.38
2019-04-19T09:09:24.751Z,399.38
2019-04-19T09:10:30.346Z,399.38
2019-04-19T09:12:23.716Z,399.38
2019-04-19T09:13:35.314Z,399.38
2019-04-19T09:14:33.082Z,399.38
2019-04-19T09:15:21.579Z,405.00
2019-04-19T09:16:20.990Z,405.00
2019-04-19T09:17:30.110Z,410.63
2019-04-19T09:18:31.997Z,405.00
2019-04-19T09:19:37.430Z,405.00
2019-04-19T09:20:26.689Z,405.00
2019-04-19T09:21:21.818Z,405.00
2019-04-19T09:22:24.289Z,410.63
2019-04-19T09:23:21.944Z,410.63
2019-04-19T09:24:12.857Z,410.63
2019-04-19T09:25:19.736Z,410.63
2019-04-19T09:26:26.550Z,410.63
2019-04-19T09:27:33.924Z,410.63
2019-04-19T09:28:36.596Z,410.63
2019-04-19T09:29:32.367Z,410.63
2019-04-19T09:30:27.426Z,410.63
2019-04-19T09:31:25.301Z,410.63
2019-04-19T09:32:11.876Z,421.88
2019-04-19T09:33:13.072Z,421.88
2019-04-19T09:34:10.646Z,416.25
2019-04-19T09:35:09.568Z,416.25
2019-04-19T09:36:11.233Z,416.25
2019-04-19T09:37:18.247Z,416.25
2019-04-19T09:38:17.157Z,416.25
2019-04-19T09:39:22.075Z,416.25
2019-04-19T09:40:11.485Z,416.25
2019-04-19T09:41:17.449Z,416.25
2019-04-19T09:42:18.420Z,416.25
2019-04-19T09:43:20.050Z,421.88
2019-04-19T09:44:16.931Z,421.88
2019-04-19T09:45:07.236Z,427.50
2019-04-19T09:46:06.446Z,427.50
2019-04-19T09:47:07.557Z,427.50
2019-04-19T09:48:13.900Z,427.50
2019-04-19T09:49:22.711Z,427.50
2019-04-19T09:50:16.115Z,427.50
2019-04-19T09:51:25.609Z,427.50
2019-04-19T09:52:31.769Z,427.50
2019-04-19T09:53:38.442Z,427.50
2019-04-19T09:54:25.713Z,433.13
2019-04-19T09:55:29.878Z,433.13
2019-04-19T09:56:26.011Z,438.75
2019-04-19T09:57:31.374Z,438.75
2019-04-19T09:58:25.531Z,438.75
2019-04-19T09:59:17.208Z,438.75
2019-04-19T10:00:12.207Z,438.75
2019-04-19T10:01:06.824Z,438.75
2019-04-19T10:02:08.444Z,438.75
2019-04-19T10:03:19.832Z,438.75
2019-04-19T10:04:08.953Z,438.75
2019-04-19T10:05:07.537Z,444.38
2019-04-19T10:06:06.914Z,450.00
2019-04-19T10:07:07.046Z,450.00
2019-04-19T10:08:06.965Z,455.63
2019-04-19T10:09:12.670Z,466.88
2019-04-19T10:10:09.833Z,489.38
2019-04-19T10:11:07.182Z,613.13
2019-04-19T10:12:07.069Z,1215.00
2019-04-19T10:13:07.843Z,1833.75
2019-04-19T10:14:08.203Z,2137.50
2019-04-19T10:15:07.129Z,1687.50
2019-04-19T10:16:08.190Z,1063.13
2019-04-19T10:17:09.461Z,1102.50
2019-04-19T10:18:07.222Z,1625.63
2019-04-19T10:19:08.515Z,1951.88
2019-04-19T10:20:07.255Z,1828.13
2019-04-19T10:21:11.824Z,1276.88
2019-04-19T10:22:07.307Z,1029.38
2019-04-19T10:23:07.331Z,1423.13
2019-04-19T10:24:12.931Z,1957.50
2019-04-19T10:25:07.386Z,2295.00
2019-04-19T10:26:10.696Z,2013.75
2019-04-19T10:27:08.915Z,1136.25
2019-04-19T10:28:07.716Z,596.25
2019-04-19T10:29:17.875Z,1698.75
2019-04-19T10:30:08.245Z,3127.50
2019-04-19T10:31:07.549Z,3656.25
2019-04-19T10:32:08.551Z,3566.25
2019-04-19T10:33:08.638Z,3735.00
2019-04-19T10:34:07.815Z,4010.63
2019-04-19T10:35:07.665Z,4005.00
2019-04-19T10:36:08.696Z,3735.00
2019-04-19T10:37:07.987Z,3661.88
2019-04-19T10:38:07.782Z,3611.25
2019-04-19T10:39:07.850Z,3493.13
2019-04-19T10:40:07.930Z,3678.75
2019-04-19T10:41:07.844Z,3881.25
2019-04-19T10:42:08.285Z,4010.63
2019-04-19T10:43:08.978Z,3982.50
2019-04-19T10:44:13.685Z,4106.25
2019-04-19T10:45:08.057Z,4438.13
2019-04-19T10:46:08.974Z,4561.88
2019-04-19T10:47:09.064Z,4471.88
2019-04-19T10:48:08.075Z,4443.75
2019-04-19T10:49:14.850Z,4393.13
2019-04-19T10:50:20.493Z,4308.75
2019-04-19T10:51:09.571Z,4398.75
2019-04-19T10:52:08.209Z,4376.25
2019-04-19T10:53:08.259Z,4308.75
2019-04-19T10:54:08.577Z,4415.63
2019-04-19T10:55:08.637Z,4623.75
2019-04-19T10:56:08.348Z,4635.00
2019-04-19T10:57:08.395Z,4713.75
2019-04-19T10:58:09.415Z,4843.13
2019-04-19T10:59:08.462Z,4876.88
2019-04-19T11:00:09.270Z,5158.13
2019-04-19T11:01:09.374Z,5551.88
2019-04-19T11:02:08.560Z,5608.13
2019-04-19T11:03:08.753Z,5371.88
2019-04-19T11:04:08.873Z,5371.88
2019-04-19T11:05:09.224Z,5889.38
2019-04-19T11:06:08.705Z,6176.25
2019-04-19T11:07:09.576Z,5962.50
2019-04-19T11:08:09.662Z,5900.63
2019-04-19T11:09:08.858Z,5760.00
2019-04-19T11:10:09.758Z,5490.00
2019-04-19T11:11:09.567Z,5118.75
2019-04-19T11:12:10.043Z,5180.63
2019-04-19T11:13:08.962Z,5045.63
2019-04-19T11:14:10.038Z,4893.75
2019-04-19T11:15:09.036Z,5416.88
2019-04-19T11:16:10.056Z,5563.13
2019-04-19T11:17:09.483Z,5743.13
2019-04-19T11:18:09.773Z,6125.63
2019-04-19T11:19:17.558Z,6018.75
2019-04-19T11:20:24.008Z,5461.88
2019-04-19T11:21:09.434Z,5343.75
2019-04-19T11:22:09.747Z,5349.38
2019-04-19T11:23:09.336Z,5394.38
2019-04-19T11:24:09.621Z,5315.63
2019-04-19T11:25:10.225Z,5675.63
2019-04-19T11:26:10.339Z,5805.00
2019-04-19T11:27:09.489Z,5878.13
2019-04-19T11:28:09.526Z,5641.88
2019-04-19T11:29:09.843Z,4995.00
2019-04-19T11:30:10.763Z,5158.13
2019-04-19T11:31:10.883Z,5439.38
2019-04-19T11:32:10.040Z,5591.25
2019-04-19T11:33:10.747Z,5580.00
2019-04-19T11:34:11.018Z,5821.88
2019-04-19T11:35:09.791Z,5866.88
2019-04-19T11:36:11.079Z,5681.25
2019-04-19T11:37:12.368Z,5501.25
2019-04-19T11:38:11.084Z,5529.38
2019-04-19T11:39:10.263Z,5394.38
2019-04-19T11:40:11.201Z,5315.63
2019-04-19T11:41:11.159Z,5394.38
2019-04-19T11:42:10.058Z,5085.00
2019-04-19T11:43:11.899Z,5613.75
2019-04-19T11:44:16.384Z,6294.38
2019-04-19T11:45:10.172Z,5760.00
2019-04-19T11:46:10.214Z,5191.88
2019-04-19T11:47:11.115Z,5107.50
2019-04-19T11:48:10.986Z,5551.88
2019-04-19T11:49:24.431Z,5737.50
2019-04-19T11:50:11.578Z,5478.75
2019-04-19T11:51:10.404Z,5276.25
2019-04-19T11:52:11.230Z,5096.25
2019-04-19T11:53:10.480Z,5546.25
2019-04-19T11:54:10.517Z,5855.63
2019-04-19T11:55:10.640Z,5855.63
2019-04-19T11:56:10.596Z,5726.25
2019-04-19T11:57:10.855Z,5602.50
2019-04-19T11:58:10.671Z,5366.25
2019-04-19T11:59:10.873Z,5197.50
2019-04-19T12:00:11.575Z,5332.50
2019-04-19T12:01:12.073Z,5225.63
2019-04-19T12:02:10.826Z,4635.00
2019-04-19T12:03:11.906Z,5270.63
2019-04-19T12:04:12.098Z,5394.38
2019-04-19T12:05:17.648Z,4955.63
2019-04-19T12:06:12.035Z,4505.63
2019-04-19T12:07:12.420Z,4764.38
2019-04-19T12:08:11.062Z,5096.25
2019-04-19T12:09:12.288Z,5056.88
2019-04-19T12:10:12.355Z,4916.25
2019-04-19T12:11:12.508Z,4916.25
2019-04-19T12:12:11.205Z,5096.25
2019-04-19T12:13:11.243Z,5011.88
2019-04-19T12:14:12.251Z,4843.13
2019-04-19T12:15:11.319Z,4415.63
2019-04-19T12:16:11.367Z,4460.63
2019-04-19T12:17:11.396Z,4882.50
2019-04-19T12:18:12.359Z,4995.00
2019-04-19T12:19:12.016Z,5242.50
2019-04-19T12:20:11.553Z,5366.25
2019-04-19T12:21:11.548Z,5113.13
2019-04-19T12:22:12.800Z,5473.13
2019-04-19T12:23:11.708Z,5506.88
2019-04-19T12:24:12.789Z,4865.63
2019-04-19T12:25:12.040Z,5006.25
2019-04-19T12:26:11.737Z,5248.13
2019-04-19T12:27:11.791Z,5321.25
2019-04-19T12:28:12.057Z,5343.75
2019-04-19T12:29:24.354Z,4921.88
2019-04-19T12:30:11.884Z,4595.63
2019-04-19T12:31:11.930Z,4567.50
2019-04-19T12:32:11.961Z,4376.25
2019-04-19T12:33:13.162Z,4201.88
2019-04-19T12:34:13.258Z,4241.25
2019-04-19T12:35:13.038Z,4162.50
2019-04-19T12:36:12.829Z,4140.00
2019-04-19T12:37:13.234Z,4213.13
2019-04-19T12:38:12.342Z,4640.63
2019-04-19T12:39:12.576Z,4871.25
2019-04-19T12:40:12.878Z,4753.13
2019-04-19T12:41:12.343Z,4578.75
2019-04-19T12:42:13.489Z,3931.88
2019-04-19T12:43:12.367Z,3150.00
2019-04-19T12:44:13.295Z,2745.00
2019-04-19T12:45:13.429Z,1878.75
2019-04-19T12:46:12.926Z,1175.63
2019-04-19T12:47:13.058Z,652.50
2019-04-19T12:48:13.893Z,444.38
2019-04-19T12:49:12.599Z,427.50
2019-04-19T12:50:13.486Z,416.25
2019-04-19T12:51:12.661Z,410.63
2019-04-19T12:52:12.692Z,410.63
2019-04-19T12:53:12.791Z,405.00
2019-04-19T12:54:14.064Z,405.00
2019-04-19T12:55:12.794Z,399.38
2019-04-19T12:56:13.843Z,399.38
2019-04-19T12:57:14.032Z,399.38
2019-04-19T12:58:14.000Z,393.75
2019-04-19T12:59:13.839Z,393.75
2019-04-19T13:00:14.048Z,393.75
2019-04-19T13:01:14.107Z,393.75
2019-04-19T13:02:13.749Z,388.13
2019-04-19T13:03:13.847Z,388.13
2019-04-19T13:04:13.120Z,388.13
2019-04-19T13:05:14.138Z,388.13
2019-04-19T13:06:13.423Z,382.50
2019-04-19T13:07:13.185Z,382.50
2019-04-19T13:08:13.204Z,382.50